createdAt,value
2023-04-16T00:02:14.773Z,66.17
2023-04-16T00:04:42.116Z,66.14
2023-04-16T00:07:09.367Z,66.17
2023-04-16T00:09:36.500Z,66.13
2023-04-16T00:12:04.272Z,66.11
2023-04-16T00:14:31.369Z,66.08
2023-04-16T00:16:58.553Z,66.24
2023-04-16T00:19:25.722Z,65.98
2023-04-16T00:21:52.910Z,66.07
2023-04-16T00:24:20.054Z,65.98
2023-04-16T00:26:47.225Z,66.13
2023-04-16T00:29:15.072Z,66.12
2023-04-16T00:31:42.196Z,66.25
2023-04-16T00:34:09.319Z,66.21
2023-04-16T00:36:36.594Z,66.15
2023-04-16T00:39:03.751Z,66.01
2023-04-16T00:41:30.998Z,66.19
2023-04-16T00:43:58.105Z,66.27
2023-04-16T00:46:26.099Z,66.22
2023-04-16T00:48:55.522Z,66.07
2023-04-16T00:51:22.914Z,66.23
2023-04-16T00:53:50.827Z,66.22
2023-04-16T00:56:18.340Z,65.98
2023-04-16T00:58:45.633Z,66.08
2023-04-16T01:01:14.403Z,66.11
2023-04-16T01:03:47.508Z,66.23
2023-04-16T01:06:16.849Z,66.27
2023-04-16T01:08:44.539Z,66.25
2023-04-16T01:11:12.266Z,66.15
2023-04-16T01:13:39.956Z,66.34
2023-04-16T01:16:11.341Z,66.14
2023-04-16T01:18:39.407Z,66.14
2023-04-16T01:21:06.939Z,66.29
2023-04-16T01:23:34.218Z,66.28
2023-04-16T01:26:02.614Z,66.04
2023-04-16T01:28:29.753Z,66.08
2023-04-16T01:30:56.844Z,66.37
2023-04-16T01:33:45.529Z,66.14
2023-04-16T01:36:12.765Z,66.07
2023-04-16T01:38:40.003Z,66.09
2023-04-16T01:41:07.139Z,66.19
2023-04-16T01:43:35.612Z,66.34
2023-04-16T01:46:15.581Z,66.34
2023-04-16T01:48:43.201Z,66.26
2023-04-16T01:51:10.334Z,66.32
2023-04-16T01:53:37.571Z,66.31
2023-04-16T01:56:05.151Z,66.31
2023-04-16T01:58:33.981Z,66.28
2023-04-16T02:01:01.291Z,66.22
2023-04-16T02:03:28.925Z,66.32
2023-04-16T02:05:56.086Z,66.17
2023-04-16T02:08:23.464Z,66.30
2023-04-16T02:10:50.884Z,66.26
2023-04-16T02:13:18.110Z,66.20
2023-04-16T02:15:48.167Z,66.37
2023-04-16T02:18:18.708Z,66.42
2023-04-16T02:20:47.460Z,66.29
2023-04-16T02:23:15.182Z,66.30
2023-04-16T02:25:43.670Z,66.30
2023-04-16T02:28:13.463Z,66.21
2023-04-16T02:30:41.592Z,66.31
2023-04-16T02:33:10.668Z,66.32
2023-04-16T02:35:40.507Z,66.42
2023-04-16T02:38:08.558Z,66.33
2023-04-16T02:40:36.102Z,66.38
2023-04-16T02:43:03.409Z,66.29
2023-04-16T02:45:31.764Z,66.27
2023-04-16T02:48:00.048Z,66.35
2023-04-16T02:50:27.468Z,66.31
2023-04-16T02:52:54.638Z,66.05
2023-04-16T02:55:21.864Z,66.36
2023-04-16T02:57:49.091Z,66.33
2023-04-16T03:00:16.477Z,66.33
2023-04-16T03:02:43.845Z,66.27
2023-04-16T03:05:12.431Z,66.40
2023-04-16T03:07:40.850Z,66.38
2023-04-16T03:10:09.100Z,66.32
2023-04-16T03:12:36.390Z,66.40
2023-04-16T03:15:07.482Z,66.41
2023-04-16T03:17:34.665Z,66.37
2023-04-16T03:20:02.003Z,66.36
2023-04-16T03:22:29.122Z,66.25
2023-04-16T03:24:56.398Z,66.33
2023-04-16T03:27:24.021Z,66.31
2023-04-16T03:29:51.657Z,66.32
2023-04-16T03:32:19.064Z,66.24
2023-04-16T03:34:46.605Z,66.29
2023-04-16T03:37:13.813Z,66.44
2023-04-16T03:39:41.077Z,66.34
2023-04-16T03:42:09.509Z,66.44
2023-04-16T03:44:36.674Z,66.12
2023-04-16T03:47:03.791Z,66.34
2023-04-16T03:49:30.980Z,66.35
2023-04-16T03:51:58.415Z,66.25
2023-04-16T03:54:25.931Z,66.28
2023-04-16T03:56:59.709Z,66.51
2023-04-16T03:59:26.872Z,66.27
2023-04-16T04:01:54.192Z,66.35
2023-04-16T04:04:21.510Z,66.35
2023-04-16T04:06:48.808Z,66.39
2023-04-16T04:09:16.393Z,66.56
2023-04-16T04:11:43.492Z,66.41
2023-04-16T04:14:10.797Z,66.45
2023-04-16T04:16:38.106Z,66.47
2023-04-16T04:19:05.222Z,66.45
2023-04-16T04:21:32.779Z,66.51
2023-04-16T04:24:00.017Z,66.42
2023-04-16T04:26:29.645Z,66.41
2023-04-16T04:28:56.950Z,66.49
2023-04-16T04:31:24.186Z,66.50
2023-04-16T04:33:51.322Z,66.45
2023-04-16T04:36:18.755Z,66.52
2023-04-16T04:38:45.889Z,66.53
2023-04-16T04:41:13.158Z,66.63
2023-04-16T04:43:40.276Z,66.66
2023-04-16T04:46:07.832Z,66.40
2023-04-16T04:48:35.485Z,66.51
2023-04-16T04:51:05.287Z,66.55
2023-04-16T04:53:32.917Z,66.57
2023-04-16T04:56:09.253Z,66.48
2023-04-16T04:58:40.807Z,66.69
2023-04-16T05:01:08.008Z,66.47
2023-04-16T05:03:35.229Z,66.51
2023-04-16T05:06:02.421Z,66.50
2023-04-16T05:08:29.572Z,66.52
2023-04-16T05:10:56.689Z,66.51
2023-04-16T05:13:23.789Z,66.54
2023-04-16T05:15:50.976Z,66.56
2023-04-16T05:18:18.081Z,66.53
2023-04-16T05:20:45.357Z,66.78
2023-04-16T05:23:12.489Z,66.52
2023-04-16T05:25:39.590Z,66.51
2023-04-16T05:28:06.765Z,66.63
2023-04-16T05:30:33.841Z,66.45
2023-04-16T05:33:01.212Z,66.52
2023-04-16T05:35:28.383Z,66.48
2023-04-16T05:37:55.571Z,66.51
2023-04-16T05:40:22.700Z,66.48
2023-04-16T05:42:49.842Z,66.50
2023-04-16T05:45:16.898Z,66.50
2023-04-16T05:47:44.396Z,66.54
2023-04-16T05:50:11.626Z,66.40
2023-04-16T05:52:39.184Z,66.57
2023-04-16T05:55:07.259Z,66.69
2023-04-16T05:57:34.372Z,66.64
2023-04-16T06:00:01.493Z,66.46
2023-04-16T06:02:30.752Z,66.40
2023-04-16T06:04:57.971Z,66.42
2023-04-16T06:07:25.121Z,66.48
2023-04-16T06:09:52.250Z,66.57
2023-04-16T06:12:19.404Z,66.52
2023-04-16T06:14:46.436Z,66.65
2023-04-16T06:17:13.536Z,66.57
2023-04-16T06:19:40.893Z,66.55
2023-04-16T06:22:07.975Z,66.53
2023-04-16T06:24:35.046Z,66.31
2023-04-16T06:27:02.955Z,66.37
2023-04-16T06:29:40.572Z,66.63
2023-04-16T06:32:08.842Z,66.40
2023-04-16T06:34:36.138Z,66.40
2023-04-16T06:37:03.452Z,66.49
2023-04-16T06:39:31.089Z,66.38
2023-04-16T06:41:58.246Z,66.70
2023-04-16T06:44:25.369Z,66.50
2023-04-16T06:46:52.788Z,66.65
2023-04-16T06:49:19.926Z,66.36
2023-04-16T06:51:47.076Z,66.60
2023-04-16T06:54:14.312Z,66.58
2023-04-16T06:56:41.448Z,66.36
2023-04-16T06:59:08.732Z,66.50
2023-04-16T07:01:36.507Z,66.61
2023-04-16T07:04:04.420Z,66.59
2023-04-16T07:06:32.187Z,66.59
2023-04-16T07:08:59.348Z,66.68
2023-04-16T07:11:27.298Z,66.44
2023-04-16T07:13:54.472Z,66.48
2023-04-16T07:16:21.690Z,66.52
2023-04-16T07:18:48.909Z,66.62
2023-04-16T07:21:16.058Z,66.58
2023-04-16T07:23:43.499Z,66.51
2023-04-16T07:26:11.767Z,66.44
2023-04-16T07:28:38.860Z,66.52
2023-04-16T07:31:06.178Z,66.63
2023-04-16T07:33:33.879Z,66.62
2023-04-16T07:36:01.050Z,66.48
2023-04-16T07:38:28.134Z,66.58
2023-04-16T07:40:56.950Z,66.36
2023-04-16T07:43:24.136Z,66.52
2023-04-16T07:45:51.714Z,66.46
2023-04-16T07:48:18.812Z,66.41
2023-04-16T07:50:46.150Z,66.57
2023-04-16T07:53:13.300Z,66.51
2023-04-16T07:55:40.439Z,66.69
2023-04-16T07:58:09.577Z,66.70
2023-04-16T08:00:36.712Z,66.74
2023-04-16T08:03:04.371Z,66.43
2023-04-16T08:05:31.692Z,66.54
2023-04-16T08:07:58.788Z,66.66
2023-04-16T08:10:26.086Z,66.60
2023-04-16T08:12:53.576Z,66.60
2023-04-16T08:15:20.620Z,66.54
2023-04-16T08:17:47.689Z,66.60
2023-04-16T08:20:17.620Z,66.54
2023-04-16T08:22:46.864Z,66.55
2023-04-16T08:25:14.637Z,66.67
2023-04-16T08:27:41.787Z,66.60
2023-04-16T08:30:08.900Z,66.54
2023-04-16T08:32:36.047Z,66.68
2023-04-16T08:35:03.352Z,66.69
2023-04-16T08:37:30.513Z,66.55
2023-04-16T08:39:57.604Z,66.53
2023-04-16T08:42:31.578Z,66.41
2023-04-16T08:45:11.620Z,66.49
2023-04-16T08:47:39.024Z,66.39
2023-04-16T08:50:06.647Z,66.34
2023-04-16T08:52:38.206Z,66.48
2023-04-16T08:55:12.718Z,66.64
2023-04-16T08:58:01.435Z,66.49
2023-04-16T09:00:31.706Z,66.54
2023-04-16T09:02:59.390Z,66.45
2023-04-16T09:05:27.830Z,66.44
2023-04-16T09:07:55.010Z,66.50
2023-04-16T09:10:22.312Z,66.53
2023-04-16T09:12:49.889Z,66.39
2023-04-16T09:15:16.967Z,66.19
2023-04-16T09:17:44.302Z,66.57
2023-04-16T09:20:13.123Z,66.42
2023-04-16T09:22:40.566Z,66.55
2023-04-16T09:25:08.301Z,66.49
2023-04-16T09:27:36.674Z,66.47
2023-04-16T09:30:22.990Z,66.52
2023-04-16T09:32:51.758Z,66.39
2023-04-16T09:35:21.966Z,66.32
2023-04-16T09:37:57.093Z,66.41
2023-04-16T09:40:26.359Z,66.50
2023-04-16T09:42:57.740Z,66.27
2023-04-16T09:45:24.962Z,66.44
2023-04-16T09:47:52.243Z,66.25
2023-04-16T09:50:20.703Z,66.42
2023-04-16T09:52:51.505Z,66.37
2023-04-16T09:55:27.158Z,66.36
2023-04-16T09:58:01.074Z,66.24
2023-04-16T10:00:30.802Z,66.44
2023-04-16T10:03:05.812Z,66.36
2023-04-16T10:05:33.077Z,66.29
2023-04-16T10:08:02.197Z,66.21
2023-04-16T10:10:29.854Z,66.15
2023-04-16T10:12:58.021Z,66.22
2023-04-16T10:15:25.880Z,66.09
2023-04-16T10:17:54.246Z,66.27
2023-04-16T10:20:24.047Z,66.22
2023-04-16T10:22:51.456Z,66.31
2023-04-16T10:25:18.943Z,66.41
2023-04-16T10:27:46.703Z,66.17
2023-04-16T10:30:16.763Z,66.52
2023-04-16T10:32:46.586Z,66.37
2023-04-16T10:35:20.188Z,66.39
2023-04-16T10:37:47.603Z,66.42
2023-04-16T10:40:27.895Z,66.20
2023-04-16T10:42:56.644Z,66.24
2023-04-16T10:45:29.909Z,66.20
2023-04-16T10:47:59.579Z,66.07
2023-04-16T10:50:35.166Z,66.22
2023-04-16T10:53:17.708Z,66.19
2023-04-16T10:55:57.544Z,66.30
2023-04-16T10:58:31.629Z,66.16
2023-04-16T11:01:07.271Z,66.39
2023-04-16T11:03:34.469Z,66.42
2023-04-16T11:06:26.271Z,66.17
2023-04-16T11:08:55.296Z,65.97
2023-04-16T11:11:23.104Z,66.33
2023-04-16T11:13:54.941Z,66.11
2023-04-16T11:16:22.123Z,66.06
2023-04-16T11:18:51.605Z,66.05
2023-04-16T11:21:20.203Z,66.08
2023-04-16T11:23:52.203Z,65.99
2023-04-16T11:26:27.378Z,65.99
2023-04-16T11:29:00.278Z,66.20
2023-04-16T11:31:27.527Z,66.16
2023-04-16T11:33:56.198Z,66.30
2023-04-16T11:36:24.865Z,66.36
2023-04-16T11:39:02.450Z,66.10
2023-04-16T11:41:29.474Z,66.17
2023-04-16T11:43:56.564Z,66.26
2023-04-16T11:46:27.869Z,66.20
2023-04-16T11:48:56.253Z,66.00
2023-04-16T11:51:24.135Z,65.98
2023-04-16T11:53:56.381Z,66.21
2023-04-16T11:56:28.588Z,66.08
2023-04-16T11:59:13.425Z,66.15
2023-04-16T12:01:42.430Z,66.25
2023-04-16T12:04:09.931Z,66.09
2023-04-16T12:06:37.442Z,66.14
2023-04-16T12:09:26.355Z,65.97
2023-04-16T12:11:53.770Z,66.23
2023-04-16T12:14:21.648Z,66.00
2023-04-16T12:16:48.874Z,66.20
2023-04-16T12:19:16.104Z,66.03
2023-04-16T12:21:46.083Z,66.15
2023-04-16T12:24:15.516Z,66.14
2023-04-16T12:26:48.796Z,66.01
2023-04-16T12:29:17.408Z,66.08
2023-04-16T12:31:44.607Z,65.94
2023-04-16T12:34:11.844Z,65.99
2023-04-16T12:36:39.029Z,66.08
2023-04-16T12:39:06.221Z,65.98
2023-04-16T12:41:36.934Z,66.14
2023-04-16T12:44:12.042Z,66.19
2023-04-16T12:46:40.491Z,65.87
2023-04-16T12:49:09.440Z,65.97
2023-04-16T12:51:37.861Z,66.01
2023-04-16T12:54:10.375Z,66.01
2023-04-16T12:56:37.414Z,66.04
2023-04-16T12:59:04.999Z,66.06
2023-04-16T13:01:32.192Z,66.07
2023-04-16T13:03:59.495Z,66.21
2023-04-16T13:06:26.800Z,65.93
2023-04-16T13:08:53.970Z,66.16
2023-04-16T13:11:21.202Z,66.16
2023-04-16T13:13:48.316Z,66.02
2023-04-16T13:16:15.507Z,66.12
2023-04-16T13:18:42.553Z,65.93
2023-04-16T13:21:09.992Z,66.26
2023-04-16T13:23:37.074Z,65.95
2023-04-16T13:26:04.334Z,66.02
2023-04-16T13:28:31.489Z,66.15
2023-04-16T13:30:58.974Z,66.06
2023-04-16T13:33:26.614Z,65.80
2023-04-16T13:35:53.917Z,65.94
2023-04-16T13:38:21.279Z,65.94
2023-04-16T13:40:48.446Z,65.95
2023-04-16T13:43:17.601Z,65.98
2023-04-16T13:45:44.970Z,66.00
2023-04-16T13:48:12.221Z,66.07
2023-04-16T13:50:39.348Z,66.18
2023-04-16T13:53:06.486Z,65.98
2023-04-16T13:55:33.589Z,65.94
2023-04-16T13:58:00.805Z,66.06
2023-04-16T14:00:28.057Z,65.92
2023-04-16T14:02:55.381Z,65.82
2023-04-16T14:05:25.142Z,65.85
2023-04-16T14:07:53.732Z,65.90
2023-04-16T14:10:21.019Z,65.99
2023-04-16T14:12:48.251Z,65.85
2023-04-16T14:15:15.474Z,66.00
2023-04-16T14:17:44.250Z,65.89
2023-04-16T14:20:13.497Z,65.67
2023-04-16T14:22:42.521Z,66.04
2023-04-16T14:25:09.742Z,66.02
2023-04-16T14:27:36.865Z,65.94
2023-04-16T14:30:05.106Z,65.79
2023-04-16T14:32:32.366Z,66.05
2023-04-16T14:34:59.501Z,66.03
2023-04-16T14:37:26.702Z,65.88
2023-04-16T14:39:54.165Z,65.84
2023-04-16T14:42:22.559Z,65.78
2023-04-16T14:44:49.799Z,65.92
2023-04-16T14:47:16.979Z,65.94
2023-04-16T14:49:44.057Z,65.77
2023-04-16T14:52:11.674Z,66.05
2023-04-16T14:54:38.752Z,65.82
2023-04-16T14:57:06.074Z,66.00
2023-04-16T14:59:33.187Z,66.10
2023-04-16T15:02:00.327Z,66.04
2023-04-16T15:04:27.878Z,65.99
2023-04-16T15:06:58.932Z,65.89
2023-04-16T15:09:27.566Z,65.71
2023-04-16T15:11:54.821Z,66.19
2023-04-16T15:14:21.970Z,65.98
2023-04-16T15:16:49.575Z,66.11
2023-04-16T15:19:16.806Z,65.97
2023-04-16T15:21:44.081Z,66.19
2023-04-16T15:24:11.600Z,65.92
2023-04-16T15:26:39.124Z,65.94
2023-04-16T15:29:06.396Z,66.07
2023-04-16T15:31:33.726Z,65.99
2023-04-16T15:34:01.628Z,66.15
2023-04-16T15:36:28.825Z,65.97
2023-04-16T15:38:55.994Z,66.09
2023-04-16T15:41:23.293Z,65.89
2023-04-16T15:43:50.558Z,65.95
2023-04-16T15:46:17.720Z,65.99
2023-04-16T15:48:44.938Z,65.96
2023-04-16T15:51:12.293Z,66.02
2023-04-16T15:53:39.584Z,66.14
2023-04-16T15:56:06.718Z,65.97
2023-04-16T15:58:33.893Z,65.84
2023-04-16T16:01:00.975Z,66.07
2023-04-16T16:03:28.311Z,66.12
2023-04-16T16:05:57.013Z,66.13
2023-04-16T16:08:26.124Z,66.19
2023-04-16T16:10:53.254Z,65.83
2023-04-16T16:13:20.245Z,66.12
2023-04-16T16:15:47.390Z,65.94
2023-04-16T16:18:14.441Z,65.94
2023-04-16T16:20:41.665Z,66.11
2023-04-16T16:23:08.765Z,66.05
2023-04-16T16:25:36.024Z,66.16
2023-04-16T16:28:06.287Z,66.01
2023-04-16T16:30:33.907Z,66.17
2023-04-16T16:33:01.020Z,65.99
2023-04-16T16:35:28.321Z,66.11
2023-04-16T16:37:57.319Z,66.09
2023-04-16T16:40:24.600Z,66.16
2023-04-16T16:42:51.879Z,65.99
2023-04-16T16:45:19.245Z,65.98
2023-04-16T16:47:46.961Z,65.91
2023-04-16T16:50:14.104Z,66.02
2023-04-16T16:52:41.272Z,65.92
2023-04-16T16:55:10.992Z,65.91
2023-04-16T16:57:38.964Z,66.08
2023-04-16T17:00:16.327Z,66.00
2023-04-16T17:02:43.913Z,65.81
2023-04-16T17:05:12.694Z,66.01
2023-04-16T17:07:39.933Z,66.13
2023-04-16T17:10:07.709Z,66.00
2023-04-16T17:12:35.658Z,65.96
2023-04-16T17:15:03.108Z,65.91
2023-04-16T17:17:31.731Z,65.88
2023-04-16T17:20:00.960Z,65.83
2023-04-16T17:22:28.129Z,66.13
2023-04-16T17:24:55.178Z,66.08
2023-04-16T17:27:22.280Z,65.88
2023-04-16T17:29:49.246Z,66.11
2023-04-16T17:32:16.526Z,66.02
2023-04-16T17:34:43.666Z,65.90
2023-04-16T17:37:10.737Z,66.01
2023-04-16T17:39:37.773Z,65.90
2023-04-16T17:42:04.842Z,65.90
2023-04-16T17:44:31.925Z,66.02
2023-04-16T17:46:59.120Z,65.78
2023-04-16T17:49:26.273Z,65.85
2023-04-16T17:51:54.090Z,65.89
2023-04-16T17:54:21.131Z,65.89
2023-04-16T17:56:48.321Z,65.85
2023-04-16T17:59:15.480Z,66.03
2023-04-16T18:01:42.708Z,66.02
2023-04-16T18:04:10.584Z,66.05
2023-04-16T18:06:38.267Z,66.23
2023-04-16T18:09:05.895Z,66.01
2023-04-16T18:11:33.190Z,66.11
2023-04-16T18:14:00.553Z,66.01
2023-04-16T18:16:27.777Z,66.10
2023-04-16T18:18:55.044Z,66.07
2023-04-16T18:21:22.236Z,66.13
2023-04-16T18:23:49.300Z,65.96
2023-04-16T18:26:20.434Z,66.07
2023-04-16T18:28:48.183Z,66.01
2023-04-16T18:31:15.455Z,66.18
2023-04-16T18:33:54.010Z,65.93
2023-04-16T18:36:23.233Z,66.12
2023-04-16T18:39:00.822Z,66.01
2023-04-16T18:41:29.886Z,66.19
2023-04-16T18:43:57.165Z,66.04
2023-04-16T18:46:25.295Z,66.15
2023-04-16T18:48:52.676Z,66.14
2023-04-16T18:51:19.817Z,66.11
2023-04-16T18:53:47.056Z,65.98
2023-04-16T18:56:14.185Z,65.92
2023-04-16T18:58:41.407Z,65.87
2023-04-16T19:01:11.378Z,66.00
2023-04-16T19:03:39.383Z,66.07
2023-04-16T19:06:06.673Z,66.08
2023-04-16T19:08:34.018Z,65.93
2023-04-16T19:11:01.187Z,66.04
2023-04-16T19:13:30.354Z,66.16
2023-04-16T19:15:59.640Z,66.01
2023-04-16T19:18:27.133Z,65.87
2023-04-16T19:21:01.259Z,65.99
2023-04-16T19:23:29.176Z,66.15
2023-04-16T19:25:57.088Z,65.99
2023-04-16T19:28:24.899Z,65.85
2023-04-16T19:30:52.961Z,65.98
2023-04-16T19:33:20.057Z,66.06
2023-04-16T19:35:47.419Z,66.07
2023-04-16T19:38:14.709Z,66.07
2023-04-16T19:40:46.809Z,65.92
2023-04-16T19:43:14.078Z,65.96
2023-04-16T19:45:53.477Z,66.07
2023-04-16T19:48:21.558Z,66.16
2023-04-16T19:50:48.856Z,66.01
2023-04-16T19:53:17.344Z,65.89
2023-04-16T19:55:44.561Z,66.01
2023-04-16T19:58:11.847Z,65.96
2023-04-16T20:00:41.173Z,66.00
2023-04-16T20:03:08.472Z,66.09
2023-04-16T20:05:35.750Z,65.94
2023-04-16T20:08:02.814Z,66.09
2023-04-16T20:10:31.613Z,66.14
2023-04-16T20:12:59.262Z,66.14
2023-04-16T20:15:26.462Z,66.20
2023-04-16T20:17:53.722Z,66.13
2023-04-16T20:20:22.763Z,66.19
2023-04-16T20:22:50.059Z,66.15
2023-04-16T20:25:19.222Z,66.40
2023-04-16T20:27:46.548Z,66.17
2023-04-16T20:30:15.138Z,66.15
2023-04-16T20:32:42.526Z,66.25
2023-04-16T20:35:11.646Z,66.10
2023-04-16T20:37:39.900Z,66.25
2023-04-16T20:40:09.046Z,66.30
2023-04-16T20:42:36.315Z,66.31
2023-04-16T20:45:03.548Z,66.14
2023-04-16T20:47:30.609Z,66.45
2023-04-16T20:49:58.320Z,66.35
2023-04-16T20:52:25.464Z,66.31
2023-04-16T20:54:52.620Z,66.32
2023-04-16T20:57:19.754Z,66.22
2023-04-16T20:59:46.865Z,66.22
2023-04-16T21:02:14.282Z,66.12
2023-04-16T21:04:41.869Z,66.21
2023-04-16T21:07:09.074Z,66.31
2023-04-16T21:09:36.355Z,66.29
2023-04-16T21:12:03.639Z,66.42
2023-04-16T21:14:30.779Z,66.36
2023-04-16T21:16:57.935Z,66.41
2023-04-16T21:19:25.102Z,66.33
2023-04-16T21:21:52.307Z,66.29
2023-04-16T21:24:19.342Z,66.36
2023-04-16T21:26:46.484Z,66.27
2023-04-16T21:29:13.771Z,66.39
2023-04-16T21:31:41.200Z,66.40
2023-04-16T21:34:08.455Z,66.20
2023-04-16T21:36:35.638Z,66.27
2023-04-16T21:39:02.777Z,66.31
2023-04-16T21:41:29.887Z,66.40
2023-04-16T21:43:57.045Z,66.33
2023-04-16T21:46:25.506Z,66.45
2023-04-16T21:48:52.672Z,66.45
2023-04-16T21:51:20.243Z,66.48
2023-04-16T21:53:47.405Z,66.59
2023-04-16T21:56:14.937Z,66.65
2023-04-16T21:58:42.156Z,66.42
2023-04-16T22:01:10.957Z,66.47
2023-04-16T22:03:40.628Z,66.44
2023-04-16T22:06:08.348Z,66.39
2023-04-16T22:08:35.475Z,66.50
2023-04-16T22:11:03.449Z,66.42
2023-04-16T22:13:36.503Z,66.62
2023-04-16T22:16:04.017Z,66.65
2023-04-16T22:18:34.089Z,66.54
2023-04-16T22:21:01.463Z,66.58
2023-04-16T22:23:28.673Z,66.45
2023-04-16T22:25:56.266Z,66.56
2023-04-16T22:28:23.889Z,66.38
2023-04-16T22:30:51.395Z,66.62
2023-04-16T22:33:18.687Z,66.49
2023-04-16T22:35:46.200Z,66.47
2023-04-16T22:38:13.466Z,66.46
2023-04-16T22:40:40.592Z,66.50
2023-04-16T22:43:07.897Z,66.60
2023-04-16T22:45:35.795Z,66.68
2023-04-16T22:48:02.968Z,66.86
2023-04-16T22:50:31.530Z,66.69
2023-04-16T22:52:58.880Z,66.78
2023-04-16T22:55:25.973Z,66.57
2023-04-16T22:57:53.094Z,66.62
2023-04-16T23:00:21.235Z,66.65
2023-04-16T23:02:48.385Z,66.80
2023-04-16T23:05:16.034Z,66.53
2023-04-16T23:07:43.264Z,66.71
2023-04-16T23:10:11.021Z,66.70
2023-04-16T23:12:38.229Z,66.65
2023-04-16T23:15:06.728Z,66.65
2023-04-16T23:17:35.335Z,66.70
2023-04-16T23:20:05.374Z,66.59
2023-04-16T23:22:32.582Z,66.56
2023-04-16T23:24:59.704Z,66.63
2023-04-16T23:27:26.811Z,66.74
2023-04-16T23:29:53.867Z,66.60
2023-04-16T23:32:21.034Z,66.61
2023-04-16T23:34:48.291Z,66.56
2023-04-16T23:37:15.627Z,66.66
2023-04-16T23:39:42.773Z,66.68
2023-04-16T23:42:09.985Z,66.72
2023-04-16T23:44:37.162Z,66.65
2023-04-16T23:47:04.595Z,66.70
2023-04-16T23:49:31.797Z,66.56
2023-04-16T23:51:58.964Z,66.67
2023-04-16T23:54:26.271Z,66.76
2023-04-16T23:56:53.454Z,66.78
2023-04-16T23:59:20.599Z,66.66
